Wetterstation Vordersexau
Wetterdaten: Woche 13.03.23 - 19.03.23 (KW11)
Datum Zeit Temp. A. Feuchte A. Luftdruck Regen Wind Richtung Taupunkt Windchill Windben
13.03.2023 00:00 12,6 C 67 % 1009,4 hPa 0,0 l/m 12,2 km/h (2 Bft) S 6,6 C 9,4 C 18,4 km/h (3 Bft)
13.03.2023 01:00 12,8 C 68 % 1009,0 hPa 0,0 l/m 6,1 km/h (2 Bft) W 7,0 C 12,8 C 9,7 km/h (2 Bft)
13.03.2023 02:00 13,0 C 70 % 1008,6 hPa 0,0 l/m 7,2 km/h (2 Bft) SW 7,7 C 12,5 C 13,3 km/h (3 Bft)
13.03.2023 03:00 12,3 C 73 % 1008,0 hPa 0,3 l/m 9,7 km/h (2 Bft) SW 7,6 C 10,3 C 13,3 km/h (3 Bft)
13.03.2023 04:00 11,9 C 77 % 1007,5 hPa 0,0 l/m 14,8 km/h (3 Bft) W 8,0 C 7,5 C 22,0 km/h (4 Bft)
13.03.2023 05:00 10,9 C 84 % 1007,2 hPa 0,0 l/m 6,1 km/h (2 Bft) W-SW 8,3 C 10,9 C 7,2 km/h (2 Bft)
13.03.2023 06:00 11,0 C 86 % 1007,3 hPa 0,3 l/m 3,6 km/h (1 Bft) SW 8,7 C 11,0 C 6,1 km/h (2 Bft)
13.03.2023 07:00 11,5 C 83 % 1007,1 hPa 0,0 l/m 7,2 km/h (2 Bft) W 8,7 C 11,0 C 9,7 km/h (2 Bft)
13.03.2023 08:00 12,8 C 80 % 1007,0 hPa 0,0 l/m 6,1 km/h (2 Bft) S-SW 9,4 C 12,8 C 9,7 km/h (2 Bft)
13.03.2023 09:00 15,0 C 76 % 1006,1 hPa 0,0 l/m 13,3 km/h (3 Bft) W 10,8 C 11,8 C 22,0 km/h (4 Bft)
13.03.2023 10:00 15,6 C 74 % 1005,3 hPa 0,0 l/m 6,1 km/h (2 Bft) W-SW 11,0 C 15,6 C 9,7 km/h (2 Bft)
13.03.2023 11:00 17,0 C 68 % 1004,3 hPa 0,0 l/m 6,1 km/h (2 Bft) W-SW 11,0 C 17,0 C 7,2 km/h (2 Bft)
13.03.2023 12:00 19,7 C 65 % 1002,3 hPa 0,0 l/m 9,7 km/h (2 Bft) SW 12,9 C 18,4 C 14,8 km/h (3 Bft)
13.03.2023 13:00 20,4 C 60 % 1001,0 hPa 0,0 l/m 12,2 km/h (2 Bft) W-SW 12,4 C 18,4 C 14,8 km/h (3 Bft)
13.03.2023 14:00 21,0 C 58 % 999,1 hPa 0,0 l/m 15,8 km/h (3 Bft) W-SW 12,4 C 18,3 C 20,9 km/h (4 Bft)
13.03.2023 15:00 20,1 C 61 % 998,2 hPa 0,0 l/m 8,6 km/h (2 Bft) SW 12,3 C 19,2 C 11,2 km/h (2 Bft)
13.03.2023 16:00 21,1 C 59 % 996,3 hPa 0,0 l/m 5,0 km/h (1 Bft) SW 12,8 C 21,1 C 7,2 km/h (2 Bft)
13.03.2023 17:00 21,1 C 48 % 994,8 hPa 0,0 l/m 20,9 km/h (4 Bft) N 9,7 C 17,5 C 35,6 km/h (5 Bft)
13.03.2023 18:00 19,7 C 51 % 993,7 hPa 0,0 l/m 0,0 km/h (0 Bft) O-NO 9,3 C 19,7 C 2,5 km/h (1 Bft)
13.03.2023 19:00 16,0 C 69 % 993,5 hPa 0,0 l/m 1,1 km/h (1 Bft) N-NW 10,3 C 16,0 C 2,5 km/h (1 Bft)
13.03.2023 20:00 12,9 C 93 % 996,3 hPa 2,4 l/m 2,5 km/h (1 Bft) SO 11,8 C 12,9 C 3,6 km/h (1 Bft)
13.03.2023 21:00 9,8 C 96 % 998,5 hPa 9,6 l/m 3,6 km/h (1 Bft) O 9,2 C 9,8 C 7,2 km/h (2 Bft)
13.03.2023 22:00 9,7 C 98 % 998,1 hPa 6,6 l/m 1,1 km/h (1 Bft) N 9,4 C 9,7 C 2,5 km/h (1 Bft)
13.03.2023 23:00 9,6 C 99 % 998,6 hPa 3,6 l/m 0,0 km/h (0 Bft) S 9,5 C 9,6 C 0,0 km/h (0 Bft)
14.03.2023 00:00 10,6 C 87 % 997,3 hPa 1,2 l/m 6,1 km/h (2 Bft) S 8,5 C 10,6 C 7,2 km/h (2 Bft)
14.03.2023 01:00 10,3 C 88 % 998,4 hPa 0,0 l/m 1,1 km/h (1 Bft) S-SW 8,4 C 10,3 C 3,6 km/h (1 Bft)
14.03.2023 02:00 11,2 C 79 % 998,0 hPa 0,0 l/m 17,3 km/h (3 Bft) W-SW 7,7 C 5,7 C 22,0 km/h (4 Bft)
14.03.2023 03:00 10,7 C 79 % 997,8 hPa 0,0 l/m 8,6 km/h (2 Bft) SW 7,2 C 9,2 C 11,2 km/h (2 Bft)
14.03.2023 04:00 10,9 C 75 % 996,8 hPa 0,0 l/m 6,1 km/h (2 Bft) S 6,6 C 10,9 C 9,7 km/h (2 Bft)
14.03.2023 05:00 10,9 C 73 % 995,9 hPa 0,0 l/m 7,2 km/h (2 Bft) SW 6,3 C 10,3 C 9,7 km/h (2 Bft)
14.03.2023 06:00 11,1 C 71 % 994,9 hPa 0,0 l/m 9,7 km/h (2 Bft) W-SW 6,0 C 9,0 C 17,3 km/h (3 Bft)
14.03.2023 07:00 11,2 C 70 % 994,9 hPa 0,0 l/m 7,2 km/h (2 Bft) W-SW 5,9 C 10,6 C 9,7 km/h (2 Bft)
14.03.2023 08:00 11,2 C 73 % 994,8 hPa 0,0 l/m 8,6 km/h (2 Bft) W-SW 6,5 C 9,7 C 13,3 km/h (3 Bft)
14.03.2023 09:00 11,2 C 73 % 995,5 hPa 0,0 l/m 19,4 km/h (3 Bft) W-SW 6,5 C 5,0 C 28,1 km/h (4 Bft)
14.03.2023 10:00 11,5 C 75 % 995,8 hPa 0,0 l/m 12,2 km/h (2 Bft) W-SW 7,2 C 8,1 C 14,8 km/h (3 Bft)
14.03.2023 11:00 10,1 C 84 % 996,3 hPa 0,3 l/m 15,8 km/h (3 Bft) W-SW 7,5 C 4,9 C 22,0 km/h (4 Bft)
14.03.2023 12:00 10,1 C 87 % 997,3 hPa 0,3 l/m 17,3 km/h (3 Bft) W-SW 8,0 C 4,4 C 25,6 km/h (4 Bft)
14.03.2023 13:00 9,6 C 72 % 1000,5 hPa 1,5 l/m 11,2 km/h (2 Bft) W 4,8 C 6,5 C 17,3 km/h (3 Bft)
14.03.2023 14:00 8,8 C 69 % 1002,1 hPa 0,0 l/m 19,4 km/h (3 Bft) W-NW 3,4 C 1,9 C 25,6 km/h (4 Bft)
14.03.2023 15:00 9,2 C 64 % 1003,2 hPa 0,0 l/m 11,2 km/h (2 Bft) SW 2,8 C 6,0 C 14,8 km/h (3 Bft)
14.03.2023 16:00 10,1 C 64 % 1002,7 hPa 0,0 l/m 12,2 km/h (2 Bft) W-NW 3,6 C 6,5 C 17,3 km/h (3 Bft)
14.03.2023 17:00 9,4 C 63 % 1003,5 hPa 0,0 l/m 17,3 km/h (3 Bft) W-NW 2,7 C 3,5 C 22,0 km/h (4 Bft)
14.03.2023 18:00 7,1 C 80 % 1005,3 hPa 0,0 l/m 6,1 km/h (2 Bft) W 3,9 C 7,1 C 11,2 km/h (2 Bft)
14.03.2023 19:00 7,0 C 75 % 1005,8 hPa 0,0 l/m 6,1 km/h (2 Bft) SW 2,9 C 7,0 C 7,2 km/h (2 Bft)
14.03.2023 20:00 6,5 C 76 % 1006,4 hPa 0,0 l/m 2,5 km/h (1 Bft) W 2,6 C 6,5 C 3,6 km/h (1 Bft)
14.03.2023 21:00 7,0 C 75 % 1006,6 hPa 0,0 l/m 6,1 km/h (2 Bft) W 2,9 C 7,0 C 7,2 km/h (2 Bft)
14.03.2023 22:00 4,5 C 93 % 1007,8 hPa 1,8 l/m 3,6 km/h (1 Bft) W 3,5 C 4,5 C 7,2 km/h (2 Bft)
14.03.2023 23:00 4,6 C 90 % 1009,0 hPa 0,0 l/m 5,0 km/h (1 Bft) N 3,1 C 4,6 C 9,7 km/h (2 Bft)
15.03.2023 00:00 3,6 C 87 % 1010,3 hPa 0,0 l/m 0,0 km/h (0 Bft) W-NW 1,6 C 3,6 C 0,0 km/h (0 Bft)
15.03.2023 01:00 3,3 C 86 % 1011,5 hPa 0,0 l/m 1,1 km/h (1 Bft) N 1,2 C 3,3 C 3,6 km/h (1 Bft)
15.03.2023 02:00 1,4 C 90 % 1012,3 hPa 0,0 l/m 0,0 km/h (0 Bft) N -0,1 C 1,4 C 0,0 km/h (0 Bft)
15.03.2023 03:00 0,5 C 95 % 1012,8 hPa 0,0 l/m 0,0 km/h (0 Bft) N -0,2 C 0,5 C 0,0 km/h (0 Bft)
15.03.2023 04:00 0,0 C 97 % 1013,2 hPa 0,0 l/m 0,0 km/h (0 Bft) N -0,4 C 0,0 C 2,5 km/h (1 Bft)
15.03.2023 05:00 -0,9 C 97 % 1013,8 hPa 0,0 l/m 0,0 km/h (0 Bft) N-NW -1,3 C -0,9 C 0,0 km/h (0 Bft)
15.03.2023 06:00 -0,8 C 98 % 1014,0 hPa 0,0 l/m 1,1 km/h (1 Bft) N -1,1 C -0,8 C 2,5 km/h (1 Bft)
15.03.2023 07:00 -0,7 C 98 % 1014,5 hPa 0,0 l/m 0,0 km/h (0 Bft) N -1,0 C -0,7 C 0,0 km/h (0 Bft)
15.03.2023 08:00 2,0 C 93 % 1015,1 hPa 0,0 l/m 0,0 km/h (0 Bft) O 1,0 C 2,0 C 2,5 km/h (1 Bft)
15.03.2023 09:00 5,4 C 79 % 1015,2 hPa 0,0 l/m 3,6 km/h (1 Bft) W 2,1 C 5,4 C 6,1 km/h (2 Bft)
15.03.2023 10:00 6,4 C 72 % 1015,4 hPa 0,0 l/m 9,7 km/h (2 Bft) W 1,7 C 3,8 C 13,3 km/h (3 Bft)
15.03.2023 11:00 7,3 C 64 % 1015,7 hPa 0,0 l/m 7,2 km/h (2 Bft) W 1,0 C 6,7 C 9,7 km/h (2 Bft)
15.03.2023 12:00 9,0 C 61 % 1015,1 hPa 0,0 l/m 8,6 km/h (2 Bft) W-SW 1,9 C 7,4 C 13,3 km/h (3 Bft)
15.03.2023 13:00 8,2 C 56 % 1014,9 hPa 0,0 l/m 8,6 km/h (2 Bft) W-NW -0,0 C 6,5 C 13,3 km/h (3 Bft)
15.03.2023 14:00 9,8 C 53 % 1014,4 hPa 0,0 l/m 8,6 km/h (2 Bft) W-SW 0,7 C 8,2 C 13,3 km/h (3 Bft)
15.03.2023 15:00 8,6 C 57 % 1014,4 hPa 0,0 l/m 3,6 km/h (1 Bft) W 0,6 C 8,6 C 6,1 km/h (2 Bft)
15.03.2023 16:00 9,2 C 55 % 1014,3 hPa 0,0 l/m 3,6 km/h (1 Bft) W-NW 0,6 C 9,2 C 7,2 km/h (2 Bft)
15.03.2023 17:00 8,7 C 56 % 1014,9 hPa 0,0 l/m 3,6 km/h (1 Bft) O-NO 0,4 C 8,7 C 6,1 km/h (2 Bft)
15.03.2023 18:00 7,0 C 68 % 1015,7 hPa 0,0 l/m 1,1 km/h (1 Bft) N 1,5 C 7,0 C 2,5 km/h (1 Bft)
15.03.2023 19:00 6,2 C 73 % 1016,0 hPa 0,0 l/m 0,0 km/h (0 Bft) N 1,7 C 6,2 C 2,5 km/h (1 Bft)
15.03.2023 20:00 4,9 C 76 % 1016,3 hPa 0,0 l/m 0,0 km/h (0 Bft) N 1,0 C 4,9 C 0,0 km/h (0 Bft)
15.03.2023 21:00 4,3 C 82 % 1016,4 hPa 0,0 l/m 0,0 km/h (0 Bft) O-SO 1,5 C 4,3 C 0,0 km/h (0 Bft)
15.03.2023 22:00 3,9 C 83 % 1016,2 hPa 0,0 l/m 1,1 km/h (1 Bft) O-SO 1,3 C 3,9 C 2,5 km/h (1 Bft)
15.03.2023 23:00 2,9 C 85 % 1016,2 hPa 0,0 l/m 1,1 km/h (1 Bft) SO 0,6 C 2,9 C 2,5 km/h (1 Bft)
16.03.2023 00:00 2,2 C 88 % 1016,1 hPa 0,0 l/m 7,2 km/h (2 Bft) SO 0,4 C 1,4 C 9,7 km/h (2 Bft)
16.03.2023 01:00 1,3 C 89 % 1016,1 hPa 0,0 l/m 0,0 km/h (0 Bft) N -0,3 C 1,3 C 2,5 km/h (1 Bft)
16.03.2023 02:00 0,0 C 92 % 1015,9 hPa 0,0 l/m 0,0 km/h (0 Bft) N -1,1 C 0,0 C 2,5 km/h (1 Bft)
16.03.2023 03:00 -0,6 C 94 % 1015,6 hPa 0,0 l/m 0,0 km/h (0 Bft) N -1,4 C -0,6 C 2,5 km/h (1 Bft)
16.03.2023 04:00 -0,5 C 94 % 1015,0 hPa 0,0 l/m 0,0 km/h (0 Bft) N -1,3 C -0,5 C 0,0 km/h (0 Bft)
16.03.2023 05:00 -0,7 C 93 % 1015,0 hPa 0,0 l/m 0,0 km/h (0 Bft) O-SO -1,7 C -0,7 C 0,0 km/h (0 Bft)
16.03.2023 06:00 -1,2 C 94 % 1014,6 hPa 0,0 l/m 1,1 km/h (1 Bft) O-SO -2,0 C -1,2 C 2,5 km/h (1 Bft)
16.03.2023 07:00 -0,8 C 94 % 1014,9 hPa 0,0 l/m 1,1 km/h (1 Bft) O-SO -1,6 C -0,8 C 2,5 km/h (1 Bft)
16.03.2023 08:00 3,3 C 85 % 1014,7 hPa 0,0 l/m 1,1 km/h (1 Bft) N-NW 1,0 C 3,3 C 2,5 km/h (1 Bft)
16.03.2023 09:00 5,3 C 81 % 1014,1 hPa 0,0 l/m 2,5 km/h (1 Bft) N-NW 2,3 C 5,3 C 3,6 km/h (1 Bft)
16.03.2023 10:00 6,7 C 73 % 1013,6 hPa 0,0 l/m 5,0 km/h (1 Bft) NW 2,2 C 6,7 C 6,1 km/h (2 Bft)
16.03.2023 11:00 9,2 C 65 % 1013,2 hPa 0,0 l/m 2,5 km/h (1 Bft) N-NW 3,0 C 9,2 C 3,6 km/h (1 Bft)
16.03.2023 12:00 11,0 C 59 % 1012,8 hPa 0,0 l/m 2,5 km/h (1 Bft) NW 3,3 C 11,0 C 3,6 km/h (1 Bft)
16.03.2023 13:00 13,3 C 60 % 1012,0 hPa 0,0 l/m 3,6 km/h (1 Bft) N-NW 5,7 C 13,3 C 3,6 km/h (1 Bft)
16.03.2023 14:00 14,0 C 48 % 1011,8 hPa 0,0 l/m 3,6 km/h (1 Bft) NW 3,2 C 14,0 C 7,2 km/h (2 Bft)
16.03.2023 15:00 14,2 C 52 % 1011,0 hPa 0,0 l/m 7,2 km/h (2 Bft) NW 4,5 C 13,7 C 9,7 km/h (2 Bft)
16.03.2023 16:00 12,9 C 58 % 1011,0 hPa 0,0 l/m 5,0 km/h (1 Bft) N 4,8 C 12,9 C 9,7 km/h (2 Bft)
16.03.2023 17:00 13,3 C 57 % 1010,9 hPa 0,0 l/m 0,0 km/h (0 Bft) N 5,0 C 13,3 C 2,5 km/h (1 Bft)
16.03.2023 18:00 11,5 C 65 % 1010,9 hPa 0,0 l/m 0,0 km/h (0 Bft) N-NW 5,2 C 11,5 C 0,0 km/h (0 Bft)
16.03.2023 19:00 8,6 C 72 % 1010,5 hPa 0,0 l/m 1,1 km/h (1 Bft) N 3,8 C 8,6 C 2,5 km/h (1 Bft)
16.03.2023 20:00 6,6 C 80 % 1010,3 hPa 0,0 l/m 0,0 km/h (0 Bft) N-NW 3,4 C 6,6 C 0,0 km/h (0 Bft)
16.03.2023 21:00 5,1 C 84 % 1010,0 hPa 0,0 l/m 1,1 km/h (1 Bft) N-NW 2,6 C 5,1 C 2,5 km/h (1 Bft)
16.03.2023 22:00 4,8 C 82 % 1009,8 hPa 0,0 l/m 2,5 km/h (1 Bft) N-NW 2,0 C 4,8 C 3,6 km/h (1 Bft)
16.03.2023 23:00 4,1 C 82 % 1009,4 hPa 0,0 l/m 1,1 km/h (1 Bft) N-NW 1,3 C 4,1 C 2,5 km/h (1 Bft)
17.03.2023 00:00 3,9 C 82 % 1009,5 hPa 0,0 l/m 1,1 km/h (1 Bft) N-NW 1,1 C 3,9 C 2,5 km/h (1 Bft)
17.03.2023 01:00 3,8 C 83 % 1008,7 hPa 0,0 l/m 1,1 km/h (1 Bft) N-NO 1,2 C 3,8 C 6,1 km/h (2 Bft)
17.03.2023 02:00 2,8 C 86 % 1008,9 hPa 0,0 l/m 2,5 km/h (1 Bft) N-NO 0,7 C 2,8 C 3,6 km/h (1 Bft)
17.03.2023 03:00 3,4 C 85 % 1008,3 hPa 0,0 l/m 2,5 km/h (1 Bft) N-NO 1,1 C 3,4 C 3,6 km/h (1 Bft)
17.03.2023 04:00 3,7 C 83 % 1007,9 hPa 0,0 l/m 1,1 km/h (1 Bft) N 1,1 C 3,7 C 3,6 km/h (1 Bft)
17.03.2023 05:00 2,5 C 85 % 1008,2 hPa 0,0 l/m 0,0 km/h (0 Bft) N 0,2 C 2,5 C 2,5 km/h (1 Bft)
17.03.2023 06:00 1,9 C 87 % 1008,1 hPa 0,0 l/m 0,0 km/h (0 Bft) N -0,0 C 1,9 C 2,5 km/h (1 Bft)
17.03.2023 07:00 2,0 C 88 % 1008,4 hPa 0,0 l/m 0,0 km/h (0 Bft) N 0,2 C 2,0 C 0,0 km/h (0 Bft)
17.03.2023 08:00 5,6 C 81 % 1008,5 hPa 0,0 l/m 0,0 km/h (0 Bft) N 2,6 C 5,6 C 0,0 km/h (0 Bft)
17.03.2023 09:00 9,2 C 69 % 1008,3 hPa 0,0 l/m 0,0 km/h (0 Bft) SO 3,8 C 9,2 C 0,0 km/h (0 Bft)
17.03.2023 10:00 10,8 C 70 % 1007,9 hPa 0,0 l/m 1,1 km/h (1 Bft) SW 5,6 C 10,8 C 2,5 km/h (1 Bft)
17.03.2023 11:00 13,1 C 64 % 1007,7 hPa 0,0 l/m 5,0 km/h (1 Bft) SW 6,4 C 13,1 C 6,1 km/h (2 Bft)
17.03.2023 12:00 14,7 C 53 % 1007,0 hPa 0,0 l/m 1,1 km/h (1 Bft) N 5,2 C 14,7 C 2,5 km/h (1 Bft)
17.03.2023 13:00 17,3 C 50 % 1006,9 hPa 0,0 l/m 0,0 km/h (0 Bft) SW 6,8 C 17,3 C 2,5 km/h (1 Bft)
17.03.2023 14:00 17,7 C 48 % 1006,7 hPa 0,0 l/m 2,5 km/h (1 Bft) SW 6,6 C 17,7 C 3,6 km/h (1 Bft)
17.03.2023 15:00 17,4 C 54 % 1006,5 hPa 0,0 l/m 7,2 km/h (2 Bft) W 8,0 C 17,0 C 9,7 km/h (2 Bft)
17.03.2023 16:00 17,6 C 47 % 1006,3 hPa 0,0 l/m 8,6 km/h (2 Bft) SW 6,2 C 16,6 C 13,3 km/h (3 Bft)
17.03.2023 17:00 16,6 C 46 % 1006,5 hPa 0,0 l/m 5,0 km/h (1 Bft) SW 4,9 C 16,6 C 7,2 km/h (2 Bft)
17.03.2023 18:00 14,9 C 54 % 1006,8 hPa 0,0 l/m 2,5 km/h (1 Bft) SO 5,7 C 14,9 C 3,6 km/h (1 Bft)
17.03.2023 19:00 11,7 C 70 % 1007,4 hPa 0,0 l/m 3,6 km/h (1 Bft) SO 6,4 C 11,7 C 3,6 km/h (1 Bft)
17.03.2023 20:00 11,2 C 68 % 1007,3 hPa 0,0 l/m 3,6 km/h (1 Bft) O-SO 5,5 C 11,2 C 6,1 km/h (2 Bft)
17.03.2023 21:00 10,5 C 70 % 1007,9 hPa 0,0 l/m 3,6 km/h (1 Bft) S-SW 5,3 C 10,5 C 3,6 km/h (1 Bft)
17.03.2023 22:00 12,4 C 55 % 1008,4 hPa 0,0 l/m 3,6 km/h (1 Bft) SW 3,6 C 12,4 C 7,2 km/h (2 Bft)
17.03.2023 23:00 14,0 C 48 % 1008,7 hPa 0,0 l/m 6,1 km/h (2 Bft) W-SW 3,2 C 14,0 C 9,7 km/h (2 Bft)
18.03.2023 00:00 14,0 C 49 % 1009,2 hPa 0,0 l/m 7,2 km/h (2 Bft) S 3,5 C 13,5 C 11,2 km/h (2 Bft)
18.03.2023 01:00 13,3 C 52 % 1009,3 hPa 0,0 l/m 7,2 km/h (2 Bft) W-SW 3,7 C 12,8 C 9,7 km/h (2 Bft)
18.03.2023 02:00 11,8 C 59 % 1009,4 hPa 0,0 l/m 2,5 km/h (1 Bft) S-SO 4,1 C 11,8 C 3,6 km/h (1 Bft)
18.03.2023 03:00 12,3 C 55 % 1009,0 hPa 0,0 l/m 8,6 km/h (2 Bft) SO 3,5 C 10,9 C 13,3 km/h (3 Bft)
18.03.2023 04:00 10,7 C 60 % 1009,3 hPa 0,0 l/m 1,1 km/h (1 Bft) O-SO 3,3 C 10,7 C 2,5 km/h (1 Bft)
18.03.2023 05:00 7,7 C 73 % 1009,5 hPa 0,0 l/m 1,1 km/h (1 Bft) SO 3,2 C 7,7 C 2,5 km/h (1 Bft)
18.03.2023 06:00 6,1 C 80 % 1009,3 hPa 0,0 l/m 1,1 km/h (1 Bft) SO 2,9 C 6,1 C 2,5 km/h (1 Bft)
18.03.2023 07:00 6,5 C 79 % 1009,8 hPa 0,0 l/m 5,0 km/h (1 Bft) N 3,1 C 6,5 C 6,1 km/h (2 Bft)
18.03.2023 08:00 8,9 C 72 % 1010,0 hPa 0,0 l/m 0,0 km/h (0 Bft) S-SW 4,1 C 8,9 C 2,5 km/h (1 Bft)
18.03.2023 09:00 14,2 C 48 % 1010,3 hPa 0,0 l/m 6,1 km/h (2 Bft) SW 3,4 C 14,2 C 7,2 km/h (2 Bft)
18.03.2023 10:00 15,0 C 47 % 1010,0 hPa 0,0 l/m 12,2 km/h (2 Bft) W-SW 3,8 C 12,2 C 22,0 km/h (4 Bft)
18.03.2023 11:00 15,3 C 43 % 1009,7 hPa 0,0 l/m 23,4 km/h (4 Bft) W-SW 2,8 C 9,3 C 31,7 km/h (5 Bft)
18.03.2023 12:00 16,6 C 45 % 1009,5 hPa 0,0 l/m 9,7 km/h (2 Bft) W-SW 4,6 C 15,0 C 13,3 km/h (3 Bft)
18.03.2023 13:00 17,9 C 50 % 1008,8 hPa 0,0 l/m 5,0 km/h (1 Bft) W-SW 7,3 C 17,9 C 6,1 km/h (2 Bft)
18.03.2023 14:00 16,9 C 51 % 1008,5 hPa 0,0 l/m 6,1 km/h (2 Bft) W 6,7 C 16,9 C 11,2 km/h (2 Bft)
18.03.2023 15:00 17,3 C 48 % 1008,2 hPa 0,0 l/m 2,5 km/h (1 Bft) W-SW 6,2 C 17,3 C 3,6 km/h (1 Bft)
18.03.2023 16:00 19,1 C 39 % 1008,0 hPa 0,0 l/m 1,1 km/h (1 Bft) SW 4,8 C 19,1 C 2,5 km/h (1 Bft)
18.03.2023 17:00 17,4 C 48 % 1007,9 hPa 0,0 l/m 3,6 km/h (1 Bft) N 6,3 C 17,4 C 6,1 km/h (2 Bft)
18.03.2023 18:00 15,6 C 50 % 1008,6 hPa 0,0 l/m 0,0 km/h (0 Bft) SO 5,2 C 15,6 C 0,0 km/h (0 Bft)
18.03.2023 19:00 12,9 C 63 % 1008,7 hPa 0,0 l/m 1,1 km/h (1 Bft) SO 6,0 C 12,9 C 2,5 km/h (1 Bft)
18.03.2023 20:00 12,5 C 67 % 1009,1 hPa 0,0 l/m 1,1 km/h (1 Bft) O-SO 6,5 C 12,5 C 3,6 km/h (1 Bft)
18.03.2023 21:00 11,2 C 71 % 1009,5 hPa 0,0 l/m 1,1 km/h (1 Bft) O-NO 6,1 C 11,2 C 2,5 km/h (1 Bft)
18.03.2023 22:00 9,9 C 77 % 1010,0 hPa 0,0 l/m 1,1 km/h (1 Bft) O-NO 6,1 C 9,9 C 3,6 km/h (1 Bft)
18.03.2023 23:00 10,0 C 77 % 1009,9 hPa 0,0 l/m 1,1 km/h (1 Bft) O-NO 6,2 C 10,0 C 2,5 km/h (1 Bft)
19.03.2023 00:00 9,6 C 78 % 1010,4 hPa 0,0 l/m 1,1 km/h (1 Bft) O-NO 6,0 C 9,6 C 2,5 km/h (1 Bft)
19.03.2023 01:00 9,4 C 79 % 1010,8 hPa 0,0 l/m 0,0 km/h (0 Bft) O-NO 5,9 C 9,4 C 2,5 km/h (1 Bft)
19.03.2023 02:00 8,9 C 84 % 1011,4 hPa 0,0 l/m 2,5 km/h (1 Bft) O-NO 6,3 C 8,9 C 3,6 km/h (1 Bft)
19.03.2023 03:00 10,6 C 74 % 1011,0 hPa 0,0 l/m 3,6 km/h (1 Bft) O-NO 6,2 C 10,6 C 6,1 km/h (2 Bft)
19.03.2023 04:00 11,3 C 70 % 1010,9 hPa 0,3 l/m 6,1 km/h (2 Bft) O-NO 6,0 C 11,3 C 7,2 km/h (2 Bft)
19.03.2023 05:00 11,1 C 69 % 1011,4 hPa 0,0 l/m 6,1 km/h (2 Bft) O-NO 5,6 C 11,1 C 7,2 km/h (2 Bft)
19.03.2023 06:00 9,7 C 80 % 1011,7 hPa 0,0 l/m 3,6 km/h (1 Bft) N 6,4 C 9,7 C 3,6 km/h (1 Bft)
19.03.2023 07:00 9,0 C 82 % 1012,1 hPa 0,0 l/m 0,0 km/h (0 Bft) N 6,1 C 9,0 C 2,5 km/h (1 Bft)
19.03.2023 08:00 12,9 C 72 % 1012,2 hPa 0,0 l/m 0,0 km/h (0 Bft) W-NW 8,0 C 12,9 C 2,5 km/h (1 Bft)
19.03.2023 09:00 13,3 C 62 % 1012,5 hPa 0,0 l/m 8,6 km/h (2 Bft) S-SW 6,2 C 12,0 C 11,2 km/h (2 Bft)
19.03.2023 10:00 13,7 C 67 % 1012,8 hPa 0,0 l/m 5,0 km/h (1 Bft) S-SW 7,7 C 13,7 C 7,2 km/h (2 Bft)
19.03.2023 11:00 13,6 C 69 % 1012,8 hPa 0,0 l/m 7,2 km/h (2 Bft) W-SW 8,0 C 13,1 C 9,7 km/h (2 Bft)
19.03.2023 12:00 14,0 C 68 % 1012,6 hPa 0,0 l/m 11,2 km/h (2 Bft) SW 8,2 C 11,5 C 17,3 km/h (3 Bft)
19.03.2023 13:00 13,9 C 67 % 1012,3 hPa 0,0 l/m 11,2 km/h (2 Bft) W-SW 7,9 C 11,3 C 14,8 km/h (3 Bft)
19.03.2023 14:00 13,4 C 73 % 1012,3 hPa 0,0 l/m 7,2 km/h (2 Bft) SW 8,7 C 12,9 C 9,7 km/h (2 Bft)
19.03.2023 15:00 13,4 C 74 % 1012,1 hPa 0,0 l/m 8,6 km/h (2 Bft) S-SW 8,9 C 12,1 C 11,2 km/h (2 Bft)
19.03.2023 16:00 13,4 C 71 % 1012,0 hPa 0,0 l/m 9,7 km/h (2 Bft) S-SO 8,3 C 11,5 C 17,3 km/h (3 Bft)
19.03.2023 17:00 13,8 C 70 % 1012,3 hPa 0,0 l/m 7,2 km/h (2 Bft) S-SO 8,4 C 13,3 C 9,7 km/h (2 Bft)
19.03.2023 18:00 12,4 C 74 % 1012,7 hPa 0,0 l/m 1,1 km/h (1 Bft) W-NW 7,9 C 12,4 C 2,5 km/h (1 Bft)
19.03.2023 19:00 10,9 C 77 % 1013,9 hPa 0,0 l/m 6,1 km/h (2 Bft) S-SW 7,0 C 10,9 C 9,7 km/h (2 Bft)
19.03.2023 20:00 8,7 C 92 % 1014,9 hPa 0,9 l/m 1,1 km/h (1 Bft) N 7,5 C 8,7 C 2,5 km/h (1 Bft)
19.03.2023 21:00 7,7 C 96 % 1015,0 hPa 0,9 l/m 0,0 km/h (0 Bft) N 7,1 C 7,7 C 2,5 km/h (1 Bft)
19.03.2023 22:00 6,7 C 97 % 1015,8 hPa 0,0 l/m 0,0 km/h (0 Bft) N 6,3 C 6,7 C 0,0 km/h (0 Bft)
19.03.2023 23:00 6,7 C 98 % 1016,1 hPa 0,0 l/m 0,0 km/h (0 Bft) N 6,4 C 6,7 C 0,0 km/h (0 Bft)
Min-Datum _ 16.03.23 18.03.23 13.03.23 - 13.03.23 - 16.03.23 16.03.23 13.03.23
_ Min-Zeit 06:37 16:37 19:37 - 18:37 - 06:37 06:37 23:37
Minimum _ -1,2 C 39 % 993,5 hPa - 0,0 km/h (0 Bft) - -2,0 C -1,2 C 0,0 km/h (0 Bft)
Max-Datum _ 13.03.23 13.03.23 15.03.23 13.03.23 18.03.23 - 13.03.23 13.03.23 13.03.23
_ Max-Zeit 16:37 23:37 21:37 21:37 11:37 - 12:37 16:37 17:37
Maximum _ 21,1 C 99 % 1016,4 hPa 9,6 l/m 23,4 km/h
W-SW (4 Bft)
- 12,9 C 21,1 C 35,6 km/h
N (5 Bft)
Durchschnitt _ 9,9 C 72 % 1008,5 hPa #30,0 l/m 4,8 km/h (1 Bft) W-SW 4,8 C 9,2 C 7,4 km/h (2 Bft)
www.sexauwetter.de